< < Back
Terminal Aerodrome Forecast


Current Version              Previous Versions:   1  2  3  4  5  6  7  8  9  

Terminal Aerodrome Forecast

366
FTUS42 KTAE 300520
TAFDHN
TAF
KDHN 300520Z 3006/3106 19004KT P6SM SKC
     FM301100 21010KT P6SM BKN025
     FM301500 28013G23KT P6SM SCT025 BKN040
      TEMPO 3018/3022 VRB15G25KT 3SM TSRA BKN025CB
     FM310000 29004KT P6SM SCT250=

Latest METAR

058
SAUS70 KWBC 301000
MTRDHN
METAR KDHN 300953Z AUTO 20005KT 10SM SCT050 11/08 A3024 RMK AO2 SLP236
T01110083 $


USA.gov is the U.S. government's official web portal to all federal, state and local government web resources and services.